Chhatrapati Shivaji International Airport
VABB : now visible

Airfield :











YOU CAN JOIN US ON...

 
LOGIN :

Register | Disclaimer

   EN    FR    IT 

 









Legend :    VFR   Marginal VFR   IFR   Intensive IFR   Very Intensive IFR
Visi :
Ceiling :
>= 8 km
>= 3000ft
5 to 8 km
1000 to 3000 ft
1500m to 5 km
500 to 1000 ft
800 to 1500m
200 to 500 ft
< 800m
< 200 ft
Symbols :   Thunderstorms  Fog  Heavy snow  Heavy precipitations  Wind > 20 kt






- Airport Elevation : 37 ft
- IATA code : BOM


VABB - Chhatrapati Shivaji International

CURRENT METAR :
  • 201100Z 27009KT 6000 FEW020 FEW025TCU SCT100 32/25 Q0999 NOSIG

EXPIRED METARs :
  • 201030Z 31006KT 6000 FEW020 FEW025TCU SCT100 32/26 Q0999 NOSIG
  • 201000Z 31008KT 6000 FEW020 FEW025TCU BKN100 33/24 Q1000 NOSIG
  • 200930Z 30005KT 6000 FEW020 FEW025TCU BKN100 32/24 Q1000 NOSIG
  • 200900Z 31008KT 5000 HZ FEW020 FEW025TCU BKN100 32/25 Q1001 NOSIG
  • 200830Z 29007KT 5000 HZ FEW020 FEW025TCU BKN100 31/25 Q1001 NOSIG

TAF TAF VABB
Valid from the 20 at 09:00 until the 20 at 18:00 UTC


200800Z 2009/2018 29008KT 4000 HZ FEW018 SCT025 BKN100
TEMPO 2009/2018 2000 TSRA SHRA FEW018 FEW030TCU/CB BKN090
BECMG 2015/2017 34005KT 3000 -DZ HZ FEW012 SCT018 BKN090
VABF FIR / Asia



MET'MAP, your aeronautical weather chart ! - Copyright ORBIFLY December 2007 - Disclaimer

ORBIFLY MET'MAP TEAM :

Programming & Development : Alexandra Zaïnal
Concept & original design : Baudouin d'Aumeries
Assistance for programming : Marc-Olivier Méhu
Technical & hardware support : Manuel Goepfert

Contact : metmap@orbifly.com




SOURCES & CREDITS :

   NOAA       Earth
Advisory